Time;durP1;ratioP1;P1;durP2;ratioP2;P2;SDS_P1;SDS_P2;PMS_P1;PMS_P2;Temp;Humidity;BMP_temperature;BMP_pressure;BME280_temperature;BME280_humidity;BME280_pressure;Samples;Min_cycle;Max_cycle;Signal;HPM_P1;HPM_P2
2022/04/16 00:01:58;;;;;;;;;11.67;10.67;;;;;18.60;44.21;102204.13;5055990;28;45430;-75
2022/04/16 00:04:23;;;;;;;;;12.67;12.67;;;;;18.55;44.07;102187.38;5058358;28;46470;-72
2022/04/16 00:06:49;;;;;;;;;11.33;9.67;;;;;18.62;44.11;102199.69;5059126;28;45408;-76
2022/04/16 00:09:14;;;;;;;;;12.33;11.00;;;;;18.61;44.18;102187.34;5059213;28;45537;-73
2022/04/16 00:11:40;;;;;;;;;10.67;10.67;;;;;18.68;44.15;102201.44;5059510;28;45401;-73
2022/04/16 00:14:05;;;;;;;;;12.00;10.67;;;;;18.58;44.45;102196.22;5059390;28;46101;-74
2022/04/16 00:16:32;;;;;;;;;10.33;10.33;;;;;18.55;44.34;102188.25;5058983;28;45483;-75
2022/04/16 00:18:57;;;;;;;;;24.67;19.33;;;;;18.62;44.16;102186.44;5060866;28;45469;-76
2022/04/16 00:21:24;;;;;;;;;17.00;14.00;;;;;18.69;44.28;102197.88;5063436;28;45422;-71
2022/04/16 00:23:51;;;;;;;;;13.00;10.67;;;;;18.71;44.14;102190.78;5060143;28;46213;-73
2022/04/16 00:26:20;;;;;;;;;12.67;11.33;;;;;18.72;44.06;102195.19;5060278;28;45481;-75
2022/04/16 00:28:50;;;;;;;;;10.67;8.33;;;;;18.58;44.34;102169.69;5061623;28;45459;-75
2022/04/16 00:31:16;;;;;;;;;11.00;10.67;;;;;18.74;43.97;102194.28;5059791;28;45311;-73
2022/04/16 00:33:41;;;;;;;;;12.33;10.33;;;;;18.73;44.17;102192.53;5059375;28;45408;-74
2022/04/16 00:36:07;;;;;;;;;12.33;12.00;;;;;18.73;44.32;102202.28;5059093;28;45400;-74
2022/04/16 00:38:33;;;;;;;;;11.00;11.00;;;;;18.75;43.98;102188.09;5058986;28;45703;-74
2022/04/16 00:41:02;;;;;;;;;11.33;10.33;;;;;18.69;44.10;102177.53;5058858;28;45785;-74
2022/04/16 00:43:29;;;;;;;;;12.67;11.67;;;;;18.80;44.29;102196.94;5058549;28;46367;-76
2022/04/16 00:45:56;;;;;;;;;9.00;9.00;;;;;18.82;44.22;102191.63;5058767;28;45434;-71
2022/04/16 00:48:22;;;;;;;;;11.33;10.67;;;;;18.71;44.67;102191.66;5059035;28;45336;-74
2022/04/16 00:50:50;;;;;;;;;12.00;10.67;;;;;18.62;44.58;102175.81;5058907;28;45503;-74
2022/04/16 00:53:16;;;;;;;;;13.67;10.67;;;;;18.70;44.74;102181.06;5058939;28;45388;-77
2022/04/16 00:55:43;;;;;;;;;12.67;10.33;;;;;18.68;44.71;102181.09;5058187;28;45523;-75
2022/04/16 00:58:10;;;;;;;;;10.67;10.67;;;;;18.72;44.48;102185.47;5057338;28;45368;-74
2022/04/16 01:00:36;;;;;;;;;11.67;8.67;;;;;18.70;44.71;102174.00;5058889;28;45567;-74
2022/04/16 01:03:02;;;;;;;;;12.67;9.00;;;;;18.76;44.52;102186.31;5058163;28;46147;-74
2022/04/16 01:05:28;;;;;;;;;11.33;9.67;;;;;18.51;44.50;102137.88;5058214;28;45449;-74
2022/04/16 01:07:57;;;;;;;;;13.33;9.67;;;;;18.69;44.76;102172.22;5058251;28;45460;-74
2022/04/16 01:10:28;;;;;;;;;10.33;10.00;;;;;18.80;44.53;102181.00;5058568;28;45543;-74
2022/04/16 01:13:02;;;;;;;;;12.67;11.67;;;;;18.79;44.76;102176.59;5058066;28;46256;-69
2022/04/16 01:15:29;;;;;;;;;15.33;12.33;;;;;18.73;44.73;102171.31;5058050;28;45235;-68
2022/04/16 01:18:02;;;;;;;;;13.00;10.33;;;;;18.70;44.92;102171.34;5058401;28;45365;-69
2022/04/16 01:20:27;;;;;;;;;12.00;11.00;;;;;18.60;45.06;102157.28;5058689;28;45398;-69
2022/04/16 01:22:56;;;;;;;;;8.67;8.67;;;;;18.68;44.92;102174.91;5057920;28;45396;-67
2022/04/16 01:25:26;;;;;;;;;14.00;12.33;;;;;18.64;44.97;102177.56;5057905;28;45353;-72
2022/04/16 01:27:53;;;;;;;;;11.00;9.33;;;;;18.66;44.93;102182.88;5058155;28;45329;-70
2022/04/16 01:30:20;;;;;;;;;10.67;10.67;;;;;18.67;45.13;102183.75;5059567;28;45384;-73
2022/04/16 01:32:48;;;;;;;;;14.00;11.67;;;;;18.68;44.93;102180.22;5060331;28;46159;-72
2022/04/16 01:35:15;;;;;;;;;12.33;11.33;;;;;18.69;45.15;102174.88;5058429;28;45363;-71
2022/04/16 01:37:41;;;;;;;;;13.67;11.67;;;;;18.60;45.00;102167.00;5058559;28;45361;-69
2022/04/16 01:40:12;;;;;;;;;12.00;11.67;;;;;18.59;44.80;102166.13;5058242;28;45318;-73
2022/04/16 01:42:38;;;;;;;;;15.33;14.00;;;;;18.58;45.05;102159.06;5057821;28;45482;-70
2022/04/16 01:45:09;;;;;;;;;14.00;11.67;;;;;18.63;45.04;102169.63;5058007;28;45427;-73
2022/04/16 01:47:38;;;;;;;;;11.00;11.00;;;;;18.49;45.07;102142.34;5039769;28;45729;-71
2022/04/16 01:50:06;;;;;;;;;11.00;9.67;;;;;18.68;45.19;102174.91;5057935;28;45507;-71
2022/04/16 01:52:33;;;;;;;;;9.33;8.33;;;;;18.60;45.18;102169.63;5057731;28;45967;-71
2022/04/16 01:54:59;;;;;;;;;11.67;10.67;;;;;18.65;45.25;102181.13;5057787;28;45505;-71
2022/04/16 01:57:24;;;;;;;;;14.00;11.67;;;;;18.51;45.19;102152.06;5057981;28;45326;-72
2022/04/16 01:59:57;;;;;;;;;11.67;11.33;;;;;18.49;45.17;102160.91;5058008;28;45465;-75
2022/04/16 02:02:23;;;;;;;;;13.00;10.33;;;;;18.37;45.20;102143.31;5057558;28;45489;-76
2022/04/16 02:04:48;;;;;;;;;14.00;12.33;;;;;18.60;45.45;102185.56;5057517;28;45464;-74
2022/04/16 02:07:14;;;;;;;;;12.00;12.00;;;;;18.60;45.20;102189.13;5056316;28;45435;-71
2022/04/16 02:09:41;;;;;;;;;16.67;10.67;;;;;18.58;45.38;102190.91;5062473;28;45302;-73
2022/04/16 02:12:08;;;;;;;;;15.00;12.00;;;;;18.56;45.56;102195.34;5077888;28;45254;-72
2022/04/16 02:14:33;;;;;;;;;14.00;12.67;;;;;18.47;45.60;102187.44;5078119;28;45495;-72
2022/04/16 02:16:59;;;;;;;;;13.67;12.33;;;;;18.52;45.66;102195.38;5078291;28;45379;-71
2022/04/16 02:19:26;;;;;;;;;14.67;13.00;;;;;18.47;45.77;102190.09;5078031;28;45596;-71
2022/04/16 02:21:51;;;;;;;;;11.67;11.00;;;;;18.34;45.76;102178.72;5077373;28;46352;-68
2022/04/16 02:24:17;;;;;;;;;16.67;14.00;;;;;18.38;45.94;102184.84;5077297;28;45585;-76
2022/04/16 02:26:44;;;;;;;;;16.67;13.67;;;;;18.32;45.79;102185.81;5077213;28;45314;-70
2022/04/16 02:29:11;;;;;;;;;11.33;11.33;;;;;18.27;45.69;102173.44;5077967;28;45339;-70
2022/04/16 02:31:37;;;;;;;;;11.67;10.33;;;;;18.18;45.70;102159.38;5077271;28;45374;-69
2022/04/16 02:34:07;;;;;;;;;19.00;15.33;;;;;18.34;46.20;102191.97;5077390;28;45515;-68
2022/04/16 02:36:34;;;;;;;;;8.00;8.00;;;;;18.23;46.01;102176.13;5077414;28;45171;-71
2022/04/16 02:39:00;;;;;;;;;15.33;14.00;;;;;18.33;46.29;102199.94;5077566;28;45284;-69
2022/04/16 02:41:26;;;;;;;;;16.00;12.33;;;;;18.27;45.97;102190.25;5077272;28;46635;-69
2022/04/16 02:43:54;;;;;;;;;13.33;12.00;;;;;18.24;46.05;102184.94;5077331;28;45684;-72
2022/04/16 02:49:08;;;;;;;;;14.67;14.67;;;;;18.21;45.94;102195.59;5077673;28;45289;-71
2022/04/16 02:51:34;;;;;;;;;12.67;11.67;;;;;18.22;46.28;102198.25;5077150;28;45435;-68
2022/04/16 02:54:00;;;;;;;;;19.00;14.67;;;;;18.18;46.11;102195.63;5059005;28;45283;-71
2022/04/16 02:56:25;;;;;;;;;16.33;14.67;;;;;18.18;46.30;102200.94;5077277;28;45353;-69
2022/04/16 02:58:52;;;;;;;;;11.67;10.00;;;;;17.97;46.36;102168.34;5077366;28;45343;-70
2022/04/16 03:01:17;;;;;;;;;14.33;12.33;;;;;18.06;46.30;102180.66;5076932;28;45430;-68
2022/04/16 03:03:43;;;;;;;;;16.33;14.00;;;;;17.74;46.39;102126.03;5077055;28;45462;-69
2022/04/16 03:06:09;;;;;;;;;13.33;13.00;;;;;18.00;46.27;102172.75;5077372;28;45356;-74
2022/04/16 03:08:35;;;;;;;;;15.33;15.33;;;;;18.12;46.15;102193.00;5077459;28;45412;-74
2022/04/16 03:11:00;;;;;;;;;14.00;14.00;;;;;18.03;46.38;102183.31;5076889;28;45915;-74
2022/04/16 03:13:26;;;;;;;;;15.67;14.67;;;;;18.01;46.01;102177.16;5077166;28;45413;-74
2022/04/16 03:18:52;;;;;;;;;17.00;14.00;;;;;17.93;46.27;102189.56;4994640;28;45359;-74
2022/04/16 03:21:18;;;;;;;;;23.67;15.67;;;;;17.88;46.52;102197.53;5059512;28;45405;-71
2022/04/16 03:23:43;;;;;;;;;20.33;17.00;;;;;17.79;46.61;102198.41;5077046;28;45461;-75
2022/04/16 03:26:09;;;;;;;;;22.33;15.67;;;;;17.79;46.59;102193.13;5061295;28;45325;-71
2022/04/16 03:28:38;;;;;;;;;21.33;16.00;;;;;17.65;46.48;102171.09;5078902;28;45399;-74
2022/04/16 03:31:05;;;;;;;;;19.67;17.00;;;;;17.67;46.56;102176.41;5080453;28;45963;-69
2022/04/16 03:33:35;;;;;;;;;17.33;13.67;;;;;17.79;46.62;102192.25;5077017;28;45488;-68
2022/04/16 03:36:00;;;;;;;;;18.67;14.67;;;;;17.67;46.57;102187.00;5077890;28;45521;-68
2022/04/16 03:38:26;;;;;;;;;18.67;14.33;;;;;17.69;46.39;102179.94;5080644;28;46065;-71
2022/04/16 03:40:52;;;;;;;;;15.33;14.00;;;;;17.41;46.58;102140.31;5081970;28;46161;-69
2022/04/16 03:43:26;;;;;;;;;21.67;16.33;;;;;17.75;46.68;102187.88;5083841;28;45334;-73
2022/04/16 03:45:51;;;;;;;;;11.00;8.33;;;;;17.74;46.50;102194.91;5084017;28;45516;-75
2022/04/16 03:48:17;;;;;;;;;21.67;15.00;;;;;17.75;46.57;102202.00;5084222;28;45339;-73
2022/04/16 03:50:42;;;;;;;;;18.00;15.33;;;;;17.61;46.77;102174.69;5082453;28;46559;-72
2022/04/16 03:53:08;;;;;;;;;15.33;15.00;;;;;17.48;46.61;102146.47;5061913;28;45353;-74
2022/04/16 04:01:04;;;;;;;;;21.00;21.00;;;;;17.47;46.67;102173.84;5082419;28;45749;-76
2022/04/16 04:03:31;;;;;;;;;25.67;19.00;;;;;17.36;47.12;102171.22;5085159;28;45926;-74
2022/04/16 04:05:58;;;;;;;;;16.33;14.33;;;;;17.24;47.30;102160.69;5082484;28;45527;-72
2022/04/16 04:08:25;;;;;;;;;18.67;15.67;;;;;17.39;46.84;102176.50;5080788;28;45338;-70
2022/04/16 04:10:51;;;;;;;;;16.33;15.00;;;;;17.41;46.97;102185.34;5080591;28;45491;-68
2022/04/16 04:13:18;;;;;;;;;19.33;14.67;;;;;17.42;46.76;102188.88;5080000;28;45394;-68
2022/04/16 04:15:44;;;;;;;;;17.67;15.00;;;;;17.37;46.74;102187.13;5080236;28;45441;-72
2022/04/16 04:18:12;;;;;;;;;17.33;13.00;;;;;17.40;46.82;102188.00;5082031;28;45265;-74
2022/04/16 04:20:38;;;;;;;;;18.00;15.67;;;;;17.19;46.74;102157.16;5061341;28;47257;-73
2022/04/16 04:23:11;;;;;;;;;19.67;19.00;;;;;17.37;47.07;102189.78;5061039;28;45456;-75
2022/04/16 04:25:36;;;;;;;;;16.00;16.00;;;;;17.32;46.96;102190.66;5061303;28;45489;-70
2022/04/16 04:28:05;;;;;;;;;20.33;19.33;;;;;17.16;46.48;102168.66;5079882;28;45721;-73
2022/04/16 04:30:30;;;;;;;;;23.00;17.00;;;;;17.23;46.83;102203.94;5080306;28;46459;-71
2022/04/16 04:32:57;;;;;;;;;18.67;15.67;;;;;17.12;46.67;102182.78;5079739;28;45492;-73
2022/04/16 04:35:24;;;;;;;;;23.67;17.67;;;;;17.25;46.57;102208.34;5078067;28;45567;-73
2022/04/16 04:37:50;;;;;;;;;17.67;17.00;;;;;17.13;46.55;102188.06;5062937;28;45251;-71
2022/04/16 04:40:15;;;;;;;;;19.00;17.33;;;;;17.24;46.40;102208.34;5079214;28;46136;-73
2022/04/16 04:42:41;;;;;;;;;19.67;12.67;;;;;17.16;46.46;102190.72;5079041;28;45401;-72
2022/04/16 04:45:12;;;;;;;;;20.67;18.00;;;;;17.21;46.41;102201.28;5079498;28;45251;-74
2022/04/16 04:47:38;;;;;;;;;24.50;17.75;;;;;17.14;46.64;102196.91;5079202;28;45467;-75
2022/04/16 04:50:06;;;;;;;;;22.33;19.00;;;;;16.99;46.73;102179.28;5078027;28;45965;-73
2022/04/16 04:52:32;;;;;;;;;23.25;22.00;;;;;16.91;46.11;102184.56;5079386;28;45435;-72
2022/04/16 04:55:00;;;;;;;;;23.50;19.75;;;;;16.93;46.62;102205.75;5079156;28;45311;-72
2022/04/16 04:57:26;;;;;;;;;21.75;17.75;;;;;16.86;47.01;102190.75;5078797;28;45579;-71
2022/04/16 04:59:53;;;;;;;;;22.25;20.00;;;;;16.78;46.51;102171.34;5078341;28;45379;-71
2022/04/16 05:02:19;;;;;;;;;17.50;14.75;;;;;16.79;46.50;102192.50;5077362;28;45290;-73
2022/04/16 05:04:46;;;;;;;;;21.50;21.50;;;;;16.65;46.66;102207.47;5060955;28;45490;-75
2022/04/16 05:07:12;;;;;;;;;25.25;22.25;;;;;16.46;46.89;102225.97;5078380;28;45457;-75
2022/04/16 05:09:38;;;;;;;;;24.75;20.00;;;;;16.35;47.35;102214.53;5077967;28;46070;-71
2022/04/16 05:12:08;;;;;;;;;21.50;19.00;;;;;16.34;47.09;102210.09;5078754;28;45483;-73
2022/04/16 05:14:33;;;;;;;;;16.75;16.50;;;;;16.44;47.05;102218.91;5079453;28;45643;-72
2022/04/16 05:16:59;;;;;;;;;27.75;22.25;;;;;16.42;47.28;102221.59;5079254;28;45357;-73
2022/04/16 05:19:25;;;;;;;;;26.75;25.75;;;;;16.35;47.37;102221.53;5078429;28;45516;-68
2022/04/16 05:21:51;;;;;;;;;26.50;22.25;;;;;16.16;47.20;102217.97;5078642;28;45381;-73
2022/04/16 05:24:16;;;;;;;;;20.50;18.50;;;;;16.13;47.84;102207.41;5070719;28;45406;-72
2022/04/16 05:26:42;;;;;;;;;21.50;18.50;;;;;16.31;47.55;102229.47;5058614;28;45373;-74
2022/04/16 05:29:07;;;;;;;;;27.00;22.00;;;;;16.26;47.57;102233.88;5058171;28;45528;-75
2022/04/16 05:31:34;;;;;;;;;29.00;24.50;;;;;16.14;47.57;102230.34;5057965;28;45419;-74
2022/04/16 05:34:18;;;;;;;;;20.75;18.50;;;;;16.13;48.00;102233.84;5058265;28;45611;-75
2022/04/16 05:36:48;;;;;;;;;25.50;20.75;;;;;16.19;47.54;102234.75;5058524;28;45417;-72
2022/04/16 05:39:14;;;;;;;;;22.00;22.00;;;;;16.28;47.67;102245.34;5057535;28;46795;-75
2022/04/16 05:41:46;;;;;;;;;30.75;26.00;;;;;15.98;47.58;102224.13;5057744;28;45322;-74
2022/04/16 05:44:11;;;;;;;;;25.00;21.25;;;;;16.09;47.99;102252.34;5072679;28;45503;-73
2022/04/16 05:46:37;;;;;;;;;27.50;19.25;;;;;15.93;47.81;102216.16;5076964;28;45477;-69
2022/04/16 05:49:07;;;;;;;;;26.50;20.75;;;;;16.12;47.72;102246.19;5070390;28;46447;-68
2022/04/16 05:51:33;;;;;;;;;21.75;21.75;;;;;16.22;47.81;102266.47;5064519;28;45449;-69
2022/04/16 05:54:02;;;;;;;;;31.50;26.75;;;;;15.91;48.19;102239.06;5058650;28;45453;-69
2022/04/16 05:56:28;;;;;;;;;26.75;25.25;;;;;15.92;48.45;102261.06;5077299;28;46037;-73
2022/04/16 05:58:55;;;;;;;;;25.50;22.00;;;;;15.95;48.05;102255.81;5077496;28;45633;-74
2022/04/16 06:01:24;;;;;;;;;37.00;28.75;;;;;15.92;48.57;102267.22;5065208;28;45507;-71
2022/04/16 06:03:50;;;;;;;;;35.75;31.75;;;;;15.72;48.50;102250.44;5058636;28;45431;-70
2022/04/16 06:06:16;;;;;;;;;27.50;24.75;;;;;15.69;48.93;102260.06;5076874;28;45408;-75
2022/04/16 06:08:47;;;;;;;;;30.00;25.25;;;;;15.55;49.16;102243.25;5058379;28;47734;-68
2022/04/16 06:11:17;;;;;;;;;21.75;18.50;;;;;15.83;49.06;102272.50;5058453;28;45517;-70
2022/04/16 06:13:42;;;;;;;;;22.75;21.25;;;;;15.80;48.79;102251.34;5077763;28;45467;-72
2022/04/16 06:16:08;;;;;;;;;21.75;19.00;;;;;16.07;48.33;102269.06;5077424;28;45385;-70
2022/04/16 06:18:34;;;;;;;;;24.25;20.50;;;;;15.99;48.42;102258.47;5077909;28;45427;-72
2022/04/16 06:21:03;;;;;;;;;26.25;18.25;;;;;15.99;48.25;102250.56;5077559;28;46075;-72
2022/04/16 06:23:31;;;;;;;;;26.00;21.75;;;;;16.11;48.97;102279.66;5077608;28;45353;-71
2022/04/16 06:25:57;;;;;;;;;25.50;21.00;;;;;16.16;48.41;102279.69;5078275;28;45231;-72
2022/04/16 06:28:23;;;;;;;;;34.50;29.50;;;;;16.17;48.30;102283.19;5077281;28;45529;-74
2022/04/16 06:30:48;;;;;;;;;24.25;21.00;;;;;16.11;48.38;102274.38;5077811;28;45144;-73
2022/04/16 06:33:14;;;;;;;;;30.00;27.25;;;;;16.08;48.02;102260.25;5077940;28;45325;-74
2022/04/16 06:35:39;;;;;;;;;34.25;27.50;;;;;15.97;48.38;102260.22;5059784;28;45778;-73
2022/04/16 06:38:05;;;;;;;;;27.50;25.50;;;;;16.15;48.39;102283.19;5078205;28;45274;-74
2022/04/16 06:40:31;;;;;;;;;25.50;25.50;;;;;15.99;48.17;102239.06;5077799;28;45443;-67
2022/04/16 06:42:57;;;;;;;;;31.75;27.00;;;;;16.42;48.00;102290.34;5077931;28;45424;-68
2022/04/16 06:45:22;;;;;;;;;28.75;24.00;;;;;16.11;47.96;102213.59;5077943;28;45444;-68
2022/04/16 06:47:48;;;;;;;;;29.75;26.25;;;;;16.57;47.96;102288.59;5077327;28;45495;-69
2022/04/16 06:50:14;;;;;;;;;25.75;23.75;;;;;16.56;47.79;102249.78;5077376;28;45454;-68
2022/04/16 06:52:39;;;;;;;;;30.00;24.00;;;;;16.70;47.27;102269.22;5077501;28;45346;-74
2022/04/16 06:55:06;;;;;;;;;25.50;22.00;;;;;16.88;47.38;102279.84;5077112;28;45351;-75
2022/04/16 06:57:32;;;;;;;;;28.50;26.25;;;;;16.96;46.88;102271.91;5075664;28;46271;-73
2022/04/16 06:59:58;;;;;;;;;26.75;23.25;;;;;17.02;46.90;102276.34;5077321;28;45564;-75
2022/04/16 07:02:24;;;;;;;;;22.25;20.75;;;;;16.91;46.79;102269.25;5077324;28;45391;-74
2022/04/16 07:04:49;;;;;;;;;36.75;27.75;;;;;16.93;46.54;102267.50;5079202;28;45483;-74
2022/04/16 07:07:15;;;;;;;;;43.25;33.00;;;;;16.80;47.00;102267.47;5077105;28;46105;-76
2022/04/16 07:09:41;;;;;;;;;42.00;34.75;;;;;16.59;46.98;102247.19;5077290;28;45510;-75
2022/04/16 07:12:11;;;;;;;;;34.00;29.00;;;;;16.75;47.12;102276.28;5076475;28;45837;-75
2022/04/16 07:14:38;;;;;;;;;34.25;31.00;;;;;16.71;47.09;102274.50;5077340;28;45546;-69
2022/04/16 07:17:13;;;;;;;;;37.75;30.50;;;;;16.52;47.29;102265.66;5076922;28;45628;-73
2022/04/16 07:19:39;;;;;;;;;38.25;31.50;;;;;16.47;47.54;102277.13;5077032;28;45468;-74
2022/04/16 07:22:06;;;;;;;;;36.25;30.00;;;;;16.37;47.65;102255.03;5058409;28;45452;-67
2022/04/16 07:24:37;;;;;;;;;37.00;30.75;;;;;16.45;47.91;102268.31;5076836;28;45412;-68
2022/04/16 07:27:04;;;;;;;;;33.50;26.50;;;;;16.45;47.69;102269.19;5058584;28;46212;-67
2022/04/16 07:29:33;;;;;;;;;26.00;23.50;;;;;16.35;47.66;102238.31;5076806;28;45281;-74
2022/04/16 07:31:58;;;;;;;;;28.50;25.75;;;;;16.47;47.37;102270.06;5058529;28;45516;-70
2022/04/16 07:34:31;;;;;;;;;36.00;29.00;;;;;16.28;47.45;102247.13;5076917;28;45390;-74
2022/04/16 07:36:56;;;;;;;;;32.25;28.50;;;;;16.34;47.51;102252.41;5076266;28;45454;-73
2022/04/16 07:39:22;;;;;;;;;30.50;24.50;;;;;16.52;47.43;102281.53;5076130;28;45707;-71
2022/04/16 07:41:51;;;;;;;;;23.25;21.50;;;;;16.61;47.37;102259.53;5076456;28;45373;-73
2022/04/16 07:44:17;;;;;;;;;30.00;23.50;;;;;16.80;47.06;102264.84;5076601;28;45645;-75
2022/04/16 07:46:47;;;;;;;;;27.00;20.75;;;;;16.97;47.84;102256.94;5075973;28;46116;-75
2022/04/16 07:49:13;;;;;;;;;162.50;143.50;;;;;17.19;46.61;102263.94;5075597;28;45535;-74
2022/04/16 07:51:39;;;;;;;;;130.67;105.00;;;;;17.45;46.13;102286.88;5076466;28;45483;-73
2022/04/16 07:54:05;;;;;;;;;59.25;45.75;;;;;17.41;45.81;102288.63;5075320;28;45800;-73
2022/04/16 07:56:30;;;;;;;;;51.25;37.50;;;;;17.44;45.82;102282.44;5075481;28;45622;-74
2022/04/16 07:58:57;;;;;;;;;33.25;28.25;;;;;17.46;45.92;102285.97;5075403;27;45444;-75
2022/04/16 08:01:22;;;;;;;;;32.00;29.00;;;;;17.38;45.80;102286.88;5076368;28;45312;-74
2022/04/16 08:03:48;;;;;;;;;23.25;22.00;;;;;17.42;45.71;102287.75;5058405;28;45500;-75
2022/04/16 08:06:14;;;;;;;;;23.25;21.25;;;;;17.57;45.79;102294.78;5059119;28;47842;-72
2022/04/16 08:08:39;;;;;;;;;24.00;21.75;;;;;17.61;45.37;102296.56;5075445;28;45463;-72
2022/04/16 08:11:05;;;;;;;;;33.75;27.25;;;;;17.65;45.35;102294.75;5076224;28;45430;-70
2022/04/16 08:13:31;;;;;;;;;31.25;30.25;;;;;17.57;45.16;102286.84;5076952;28;45389;-73
2022/04/16 08:15:57;;;;;;;;;24.75;22.25;;;;;17.56;45.49;102285.09;5076122;28;45530;-72
2022/04/16 08:18:22;;;;;;;;;23.75;20.25;;;;;17.58;45.55;102291.25;5076257;28;45377;-70
2022/04/16 08:20:48;;;;;;;;;28.75;26.00;;;;;17.64;45.21;102295.66;5076195;28;45329;-73
2022/04/16 08:23:14;;;;;;;;;30.00;25.50;;;;;17.62;45.40;102300.09;5076134;28;45494;-69
2022/04/16 08:28:06;;;;;;;;;36.00;30.25;;;;;17.55;45.51;102301.84;5079445;28;45373;-70
2022/04/16 08:30:36;;;;;;;;;29.75;27.50;;;;;17.30;46.16;102266.59;5079858;28;45533;-69
2022/04/16 08:33:01;;;;;;;;;25.75;21.25;;;;;17.61;45.46;102304.50;5061731;28;45283;-71
2022/04/16 08:35:28;;;;;;;;;24.75;21.25;;;;;17.69;45.46;102288.56;5079043;28;45333;-73
2022/04/16 08:37:53;;;;;;;;;20.00;18.33;;;;;17.85;44.96;102287.69;5060859;28;45527;-69
2022/04/16 08:40:20;;;;;;;;;23.00;22.50;;;;;17.75;44.72;102251.47;5079641;28;45321;-75
2022/04/16 08:42:50;;;;;;;;;20.75;19.50;;;;;18.01;44.98;102278.78;5079197;28;45374;-73
2022/04/16 08:45:16;;;;;;;;;27.25;25.00;;;;;18.09;44.07;102305.25;5060691;28;46290;-74
2022/04/16 08:47:42;;;;;;;;;29.50;28.00;;;;;17.87;44.27;102300.91;5079007;28;45515;-74
2022/04/16 08:50:10;;;;;;;;;25.50;23.00;;;;;17.47;44.52;102250.69;5079489;28;45452;-68
2022/04/16 08:52:37;;;;;;;;;22.33;19.00;;;;;17.76;44.98;102304.44;5079561;28;45314;-68
2022/04/16 08:55:14;;;;;;;;;32.50;28.00;;;;;17.82;44.92;102318.59;5079419;28;46122;-68
2022/04/16 08:57:41;;;;;;;;;29.25;24.00;;;;;17.73;45.31;102312.41;5079094;28;45365;-73
2022/04/16 09:00:14;;;;;;;;;23.00;20.50;;;;;17.87;45.56;102317.72;5079331;28;45464;-68
2022/04/16 09:03:00;;;;;;;;;23.25;21.75;;;;;17.99;45.22;102308.84;5060945;28;45446;-70
2022/04/16 09:05:27;;;;;;;;;22.00;19.25;;;;;18.18;44.77;102315.81;5078501;28;46531;-70
2022/04/16 09:07:59;;;;;;;;;27.25;22.25;;;;;18.06;44.49;102270.81;5078774;28;45504;-75
2022/04/16 09:10:28;;;;;;;;;28.50;24.50;;;;;18.18;44.64;102307.88;5078780;28;45240;-73
2022/04/16 09:13:00;;;;;;;;;24.50;22.50;;;;;18.21;44.83;102318.47;5078810;28;45397;-70
2022/04/16 09:15:27;;;;;;;;;27.75;24.25;;;;;18.07;44.66;102300.84;5078459;28;46184;-72
2022/04/16 09:18:07;;;;;;;;;27.33;22.67;;;;;18.07;44.66;102287.59;5078998;28;45333;-71
2022/04/16 09:20:37;;;;;;;;;26.00;20.67;;;;;18.34;44.48;102305.13;5079733;28;45463;-68
2022/04/16 09:23:24;;;;;;;;;25.25;22.25;;;;;18.43;44.44;102307.72;5079605;28;45513;-73
2022/04/16 09:25:50;;;;;;;;;28.00;23.00;;;;;18.35;43.58;102307.78;5079504;28;45980;-72
2022/04/16 09:28:21;;;;;;;;;27.00;22.00;;;;;18.01;44.21;102254.06;5078909;28;45285;-75
2022/04/16 09:30:50;;;;;;;;;23.00;20.50;;;;;18.35;44.28;102288.34;5078432;28;45515;-74
2022/04/16 09:33:15;;;;;;;;;23.00;22.25;;;;;18.48;44.07;102300.63;5078637;28;45423;-73
2022/04/16 09:35:41;;;;;;;;;20.33;18.33;;;;;18.52;44.30;102280.28;5078127;28;45357;-73
2022/04/16 09:38:08;;;;;;;;;19.33;17.67;;;;;18.63;44.02;102281.09;5079018;28;45519;-73
2022/04/16 09:40:35;;;;;;;;;16.00;15.67;;;;;18.86;44.10;102294.22;5078422;28;45582;-72
2022/04/16 09:43:04;;;;;;;;;20.67;17.67;;;;;19.02;43.92;102293.19;5078416;28;45573;-73
2022/04/16 09:45:30;;;;;;;;;23.33;21.67;;;;;19.15;43.52;102287.78;5076985;28;45569;-74
2022/04/16 09:47:57;;;;;;;;;21.33;18.00;;;;;19.24;43.18;102285.94;5078169;27;45490;-69
2022/04/16 09:50:25;;;;;;;;;15.67;13.00;;;;;19.32;42.56;102275.22;5076755;28;45475;-71
2022/04/16 09:52:53;;;;;;;;;22.33;19.67;;;;;19.06;41.83;102231.22;5077841;28;45463;-70
2022/04/16 09:55:21;;;;;;;;;22.67;20.00;;;;;19.22;41.43;102271.78;5076359;28;47811;-70
2022/04/16 09:57:52;;;;;;;;;23.33;18.67;;;;;19.13;42.16;102281.63;5077941;28;45364;-70
2022/04/16 10:00:18;;;;;;;;;26.33;24.33;;;;;19.01;41.94;102283.47;5078095;28;45557;-69
2022/04/16 10:02:46;;;;;;;;;24.33;20.33;;;;;18.84;41.93;102286.28;5059646;28;45313;-71
2022/04/16 10:05:12;;;;;;;;;24.00;22.00;;;;;18.67;41.24;102269.53;5058983;28;47283;-68
2022/04/16 10:07:38;;;;;;;;;19.67;18.33;;;;;18.62;41.52;102277.53;5077805;28;45534;-73
2022/04/16 10:10:17;;;;;;;;;17.67;15.33;;;;;18.69;41.92;102280.16;5059807;28;45204;-67
2022/04/16 10:13:04;;;;;;;;;15.67;13.67;;;;;18.79;42.53;102282.78;5079600;28;45390;-77
2022/04/16 10:16:02;;;;;;;;;13.67;13.33;;;;;19.03;42.73;102292.31;5061145;28;45718;-77
2022/04/16 10:18:28;;;;;;;;;13.00;13.00;;;;;19.18;41.80;102282.44;5078249;28;45830;-77
2022/04/16 10:20:58;;;;;;;;;15.00;14.67;;;;;19.30;41.49;102289.44;5078267;28;45523;-70
2022/04/16 10:23:36;;;;;;;;;23.67;21.00;;;;;19.32;42.47;102280.53;5079578;28;45496;-69
2022/04/16 10:26:03;;;;;;;;;17.00;16.00;;;;;19.30;41.42;102278.81;5078670;28;46187;-67
2022/04/16 10:28:41;;;;;;;;;18.00;16.00;;;;;19.41;42.28;102284.88;5077865;28;45240;-68
2022/04/16 10:31:19;;;;;;;;;16.33;15.33;;;;;19.58;42.26;102282.06;5078416;28;45367;-72
2022/04/16 10:33:57;;;;;;;;;15.00;14.33;;;;;19.62;41.49;102268.72;5077789;28;45548;-69
2022/04/16 10:36:32;;;;;;;;;17.33;16.33;;;;;19.67;40.45;102268.63;5077494;28;46100;-70
2022/04/16 10:39:00;;;;;;;;;18.33;16.67;;;;;19.67;39.74;102266.88;5077464;28;45449;-69
2022/04/16 10:41:27;;;;;;;;;22.00;19.67;;;;;19.65;40.00;102281.09;5059106;28;45828;-69
2022/04/16 10:43:59;;;;;;;;;21.67;16.67;;;;;19.44;40.32;102255.63;5059731;28;45442;-69
2022/04/16 10:46:39;;;;;;;;;13.67;13.67;;;;;19.63;39.92;102281.09;5077060;28;45282;-68
2022/04/16 10:49:08;;;;;;;;;13.67;13.67;;;;;19.62;39.25;102255.44;5077606;28;45387;-67
2022/04/16 10:51:35;;;;;;;;;17.00;13.33;;;;;19.68;38.65;102267.78;5077470;28;45365;-70
2022/04/16 10:54:11;;;;;;;;;15.00;12.33;;;;;19.72;39.67;102268.63;5077616;28;45571;-69
2022/04/16 10:56:39;;;;;;;;;8.33;8.00;;;;;19.94;38.64;102263.94;5077130;28;46216;-71
2022/04/16 10:59:07;;;;;;;;;12.67;12.67;;;;;20.19;38.29;102275.13;5077591;28;45349;-75
2022/04/16 11:01:34;;;;;;;;;16.00;13.00;;;;;20.06;37.57;102246.03;5078608;28;45414;-75
2022/04/16 11:04:12;;;;;;;;;14.00;11.00;;;;;20.22;38.98;102249.38;5079975;28;45357;-72
2022/04/16 11:06:44;;;;;;;;;23.00;17.00;;;;;20.43;38.01;102253.50;5079200;28;46683;-66
2022/04/16 11:09:20;;;;;;;;;16.00;15.67;;;;;20.50;38.33;102254.25;5080999;28;45400;-76
2022/04/16 11:11:55;;;;;;;;;22.67;17.33;;;;;20.54;37.93;102259.53;5081016;28;45414;-74
2022/04/16 11:14:23;;;;;;;;;24.67;17.33;;;;;20.50;38.04;102259.59;5080143;28;45295;-75
2022/04/16 11:16:49;;;;;;;;;19.33;17.33;;;;;20.37;37.92;102218.13;5082156;28;45482;-78
2022/04/16 11:19:16;;;;;;;;;19.67;16.67;;;;;20.54;38.44;102253.31;5062625;28;45402;-71
2022/04/16 11:21:43;;;;;;;;;17.00;16.00;;;;;20.32;38.19;102215.53;5061931;28;45474;-70
2022/04/16 11:24:09;;;;;;;;;13.33;13.33;;;;;20.74;38.47;102259.25;5079919;28;45216;-73
2022/04/16 11:34:57;;;;;;;;;15.00;14.00;;;;;21.46;37.07;102267.78;5079291;28;45290;-71